Time;durP1;ratioP1;P1;durP2;ratioP2;P2;SDS_P1;SDS_P2;PMS_P1;PMS_P2;Temp;Humidity;BMP_temperature;BMP_pressure;BME280_temperature;BME280_humidity;BME280_pressure;Samples;Min_cycle;Max_cycle;Signal;HPM_P1;HPM_P2
2021/12/13 07:26:53;;;;;;;37.55;13.05;;;;;;;3.11;100.00;100220.34;5157075;27;20389;-80
2021/12/13 07:29:23;;;;;;;37.20;12.48;;;;;;;3.25;100.00;100225.59;5142676;27;20075;-80
2021/12/13 07:32:06;;;;;;;40.75;15.10;;;;;;;3.47;100.00;100238.28;5150883;27;20050;-80
2021/12/13 07:34:34;;;;;;;34.47;12.43;;;;;;;3.49;100.00;100228.31;5150560;27;20469;-80
2021/12/13 07:37:04;;;;;;;41.40;12.70;;;;;;;3.58;100.00;100239.34;5150369;27;20060;-80
2021/12/13 07:39:32;;;;;;;;;;;;;;;3.66;100.00;100243.19;5150371;27;20413;-80
2021/12/13 07:42:05;;;;;;;31.33;11.68;;;;;;;3.69;100.00;100255.53;5150041;27;19927;-81
2021/12/13 07:44:40;;;;;;;34.17;11.93;;;;;;;3.65;100.00;100237.91;5150220;27;20042;-81
2021/12/13 07:47:11;;;;;;;27.15;11.05;;;;;;;3.74;100.00;100245.28;5145525;27;20062;-81
2021/12/13 07:49:42;;;;;;;31.45;12.32;;;;;;;3.72;100.00;100236.50;5148484;27;20055;-80
2021/12/13 07:52:21;;;;;;;31.08;11.18;;;;;;;3.81;100.00;100234.91;5149945;27;20081;-80
2021/12/13 07:54:48;;;;;;;36.15;12.63;;;;;;;3.97;100.00;100240.84;5150424;27;20047;-81
2021/12/13 07:57:22;;;;;;;34.85;11.68;;;;;;;3.99;100.00;100233.56;5150681;27;20126;-81
2021/12/13 07:59:50;;;;;;;27.98;10.68;;;;;;;4.05;100.00;100245.66;5149689;27;20055;-81
2021/12/13 08:02:25;;;;;;;28.75;11.52;;;;;;;4.11;100.00;100247.91;5139944;27;20043;-80
2021/12/13 08:04:56;;;;;;;31.15;10.60;;;;;;;4.07;100.00;100249.09;5146028;27;20047;-81
2021/12/13 08:07:27;;;;;;;23.35;9.88;;;;;;;4.12;100.00;100249.59;5149993;27;20042;-81
2021/12/13 08:09:56;;;;;;;29.55;10.20;;;;;;;4.33;100.00;100257.03;5149877;27;20043;-81
2021/12/13 08:12:29;;;;;;;27.60;10.30;;;;;;;4.35;100.00;100249.66;5149991;27;20043;-81
2021/12/13 08:15:08;;;;;;;27.42;9.85;;;;;;;4.32;100.00;100234.63;5150090;27;20046;-81
2021/12/13 08:17:43;;;;;;;25.73;9.35;;;;;;;4.36;100.00;100257.63;5142859;27;20055;-81
2021/12/13 08:20:14;;;;;;;23.90;9.52;;;;;;;4.31;100.00;100240.16;5141966;27;20054;-81
2021/12/13 08:22:44;;;;;;;30.52;10.43;;;;;;;4.39;100.00;100243.94;5141300;27;20125;-81
2021/12/13 08:25:16;;;;;;;22.75;9.05;;;;;;;4.49;100.00;100259.41;5152175;27;20095;-81
2021/12/13 08:27:52;;;;;;;23.95;9.18;;;;;;;4.54;100.00;100247.28;5149689;27;20057;-80
2021/12/13 08:30:22;;;;;;;20.65;8.60;;;;;;;4.68;100.00;100253.41;5149801;27;20043;-80
2021/12/13 08:33:04;;;;;;;26.80;9.75;;;;;;;4.83;100.00;100267.53;5149344;27;20478;-81
2021/12/13 08:35:48;;;;;;;23.30;9.43;;;;;;;4.72;100.00;100261.13;5145211;27;20054;-81
2021/12/13 08:38:28;;;;;;;22.85;8.88;;;;;;;4.80;100.00;100260.53;5129279;27;20047;-80
2021/12/13 08:40:55;;;;;;;22.73;9.18;;;;;;;4.78;100.00;100249.03;5124155;27;20039;-81
2021/12/13 08:43:37;;;;;;;25.10;9.00;;;;;;;4.86;100.00;100265.44;5136402;27;20301;-81
2021/12/13 08:46:05;;;;;;;31.73;14.50;;;;;;;4.84;100.00;100266.56;5135552;27;20043;-81
2021/12/13 08:48:32;;;;;;;28.88;10.75;;;;;;;4.76;100.00;100253.69;5135251;27;20447;-81
2021/12/13 08:51:00;;;;;;;25.45;12.48;;;;;;;4.86;100.00;100273.50;5135030;27;20038;-81
2021/12/13 08:53:30;;;;;;;31.63;16.55;;;;;;;5.00;100.00;100268.88;5134891;27;20051;-81
2021/12/13 08:56:02;;;;;;;29.88;14.05;;;;;;;4.99;100.00;100257.25;5135287;27;20126;-81
2021/12/13 08:58:29;;;;;;;20.55;10.00;;;;;;;4.97;100.00;100267.31;5135367;27;20088;-81
2021/12/13 09:01:03;;;;;;;31.25;14.88;;;;;;;4.94;100.00;100251.38;5128408;27;20070;-81
2021/12/13 09:03:41;;;;;;;19.05;10.52;;;;;;;5.03;100.00;100268.63;5128109;27;20070;-81
2021/12/13 09:06:33;;;;;;;35.47;14.73;;;;;;;5.08;100.00;100277.22;5135067;27;20042;-81
2021/12/13 09:09:09;;;;;;;23.40;9.98;;;;;;;4.96;100.00;100258.34;5114525;27;20379;-81
2021/12/13 09:11:40;;;;;;;25.17;10.73;;;;;;;5.17;100.00;100286.41;5134942;27;20047;-81
2021/12/13 09:14:15;;;;;;;24.10;11.82;;;;;;;5.10;100.00;100273.44;5135006;27;20051;-81
2021/12/13 09:16:55;;;;;;;44.28;22.95;;;;;;;5.24;100.00;100288.50;5133600;27;20047;-81
2021/12/13 09:19:26;;;;;;;23.13;11.45;;;;;;;5.14;100.00;100266.78;5131901;27;20046;-81
2021/12/13 09:21:59;;;;;;;30.20;14.07;;;;;;;5.21;100.00;100280.66;5133044;27;20054;-81
2021/12/13 09:24:38;;;;;;;21.38;11.23;;;;;;;5.18;100.00;100271.94;5134634;27;20050;-81
2021/12/13 09:27:16;;;;;;;26.83;12.18;;;;;;;5.40;100.00;100289.94;5134422;27;20046;-81
2021/12/13 09:29:49;;;;;;;19.02;9.48;;;;;;;5.39;100.00;100297.19;5134747;27;20047;-81
2021/12/13 09:32:18;;;;;;;30.63;13.30;;;;;;;5.44;100.00;100299.50;5127013;27;20043;-81
2021/12/13 09:34:45;;;;;;;23.38;11.38;;;;;;;5.45;100.00;100290.41;5134135;27;20044;-81
2021/12/13 09:37:13;;;;;;;44.80;19.77;;;;;;;5.50;100.00;100290.94;5127874;27;20047;-81
2021/12/13 09:39:41;;;;;;;24.05;12.07;;;;;;;5.50;100.00;100285.53;5140240;27;20046;-81
2021/12/13 09:42:13;;;;;;;17.33;9.32;;;;;;;5.54;100.00;100297.78;5134819;27;20134;-81
2021/12/13 09:44:48;;;;;;;22.25;10.68;;;;;;;5.49;100.00;100270.31;5134218;27;20047;-81
2021/12/13 09:47:20;;;;;;;33.45;14.90;;;;;;;5.59;100.00;100281.22;5134254;27;20119;-81
2021/12/13 09:50:00;;;;;;;20.00;10.18;;;;;;;5.55;100.00;100282.44;5132205;27;20054;-81
2021/12/13 09:52:32;;;;;;;22.15;10.27;;;;;;;5.72;100.00;100281.06;5134107;27;20457;-81
2021/12/13 09:55:02;;;;;;;36.80;17.35;;;;;;;5.79;100.00;100282.28;5134064;27;20062;-81
2021/12/13 09:57:31;;;;;;;26.85;12.65;;;;;;;5.79;100.00;100285.81;5133455;27;20043;-81
2021/12/13 10:00:00;;;;;;;24.00;12.07;;;;;;;5.76;100.00;100271.75;5134170;27;20051;-81
2021/12/13 10:02:32;;;;;;;21.75;10.40;;;;;;;5.87;100.00;100271.69;5133732;27;20055;-81
2021/12/13 10:05:00;;;;;;;24.23;11.63;;;;;;;5.84;100.00;100272.81;5133749;27;20043;-81
2021/12/13 10:07:30;;;;;;;18.60;10.02;;;;;;;5.78;100.00;100270.63;5131248;27;20050;-81
2021/12/13 10:10:04;;;;;;;23.75;9.88;;;;;;;5.84;100.00;100270.13;5129276;27;20050;-81
2021/12/13 10:12:39;;;;;;;29.65;13.93;;;;;;;5.88;100.00;100276.13;5133133;27;20108;-81
2021/12/13 10:15:10;;;;;;;25.38;10.75;;;;;;;5.97;100.00;100282.63;5129969;27;20081;-81
2021/12/13 10:17:41;;;;;;;16.13;9.85;;;;;;;6.04;100.00;100273.03;5133908;27;20054;-81
2021/12/13 10:20:13;;;;;;;22.60;10.27;;;;;;;6.05;100.00;100265.78;5133783;27;20062;-81
2021/12/13 10:22:40;;;;;;;20.85;10.10;;;;;;;5.91;100.00;100242.63;5125262;27;20049;-81
2021/12/13 10:25:15;;;;;;;24.27;10.82;;;;;;;6.02;100.00;100256.09;5137056;27;20077;-81
2021/12/13 10:27:43;;;;;;;16.23;8.55;;;;;;;5.98;100.00;100254.66;5127976;27;20148;-81
2021/12/13 10:30:16;;;;;;;18.88;9.15;;;;;;;5.89;100.00;100247.31;5136272;27;20489;-81
2021/12/13 10:32:46;;;;;;;24.73;11.07;;;;;;;6.02;100.00;100258.78;5124869;27;20039;-81
2021/12/13 10:35:18;;;;;;;26.83;11.80;;;;;;;6.01;100.00;100260.66;5133426;27;20482;-81
2021/12/13 10:37:48;;;;;;;21.75;10.02;;;;;;;6.12;100.00;100267.84;5133165;27;20466;-81
2021/12/13 10:40:20;;;;;;;15.40;8.63;;;;;;;6.32;100.00;100262.59;5133159;27;20054;-81
2021/12/13 10:42:51;;;;;;;22.00;11.10;;;;;;;6.23;100.00;100252.56;5133163;27;20390;-81
2021/12/13 10:45:18;;;;;;;;;;;;;;;6.28;100.00;100253.03;5132615;27;20043;-81
2021/12/13 10:47:50;;;;;;;16.73;7.90;;;;;;;6.42;100.00;100255.41;5130083;27;19927;-81
2021/12/13 10:50:23;;;;;;;16.70;8.88;;;;;;;6.45;100.00;100254.31;5128837;27;20047;-81
2021/12/13 10:52:53;;;;;;;22.98;10.27;;;;;;;6.35;100.00;100244.31;5132187;27;20126;-81
2021/12/13 10:55:23;;;;;;;16.77;8.23;;;;;;;6.35;100.00;100238.91;5133165;27;20113;-81
2021/12/13 10:57:51;;;;;;;27.05;10.00;;;;;;;6.44;100.00;100253.44;5132715;27;20125;-81
2021/12/13 11:00:24;;;;;;;15.40;8.15;;;;;;;6.36;100.00;100229.78;5133005;27;20441;-81
2021/12/13 11:02:55;;;;;;;18.55;8.68;;;;;;;6.46;100.00;100229.00;5133000;27;20114;-81
2021/12/13 11:05:24;;;;;;;15.90;7.88;;;;;;;6.45;100.00;100228.13;5134351;27;20043;-82
2021/12/13 11:07:52;;;;;;;14.27;7.75;;;;;;;6.43;100.00;100229.25;5132506;27;20441;-81
2021/12/13 11:10:26;;;;;;;12.05;7.60;;;;;;;6.52;100.00;100233.88;5130089;27;20043;-81
2021/12/13 11:12:57;;;;;;;11.68;6.95;;;;;;;6.51;100.00;100240.28;5132588;27;20043;-81
2021/12/13 11:15:27;;;;;;;10.45;6.75;;;;;;;6.41;100.00;100229.38;5132520;27;20119;-81
2021/12/13 11:17:56;;;;;;;12.75;6.47;;;;;;;6.60;100.00;100225.97;5124052;27;20126;-81
2021/12/13 11:20:27;;;;;;;10.63;6.22;;;;;;;6.65;100.00;100231.81;5132280;27;20050;-81
2021/12/13 11:22:55;;;;;;;15.95;7.82;;;;;;;6.67;100.00;100237.97;5132443;28;20055;-81
2021/12/13 11:25:25;;;;;;;12.27;6.57;;;;;;;6.59;100.00;100235.03;5132362;28;20043;-81
2021/12/13 11:27:52;;;;;;;12.02;6.75;;;;;;;6.47;100.00;100212.66;5124400;27;20047;-81
2021/12/13 11:30:24;;;;;;;10.57;6.45;;;;;;;6.60;100.00;100215.16;5128894;28;20047;-81
2021/12/13 11:33:24;;;;;;;10.73;6.40;;;;;;;6.77;100.00;100227.19;5132437;28;20046;-81
2021/12/13 11:36:33;;;;;;;13.65;6.00;;;;;;;6.90;100.00;100206.19;5129284;28;20043;-81
2021/12/13 11:39:44;;;;;;;11.85;6.10;;;;;;;7.02;100.00;100211.53;5132015;28;20113;-80
2021/12/13 11:42:41;;;;;;;12.38;5.95;;;;;;;6.93;100.00;100204.22;5131467;28;20043;-81
2021/12/13 11:45:33;;;;;;;12.90;6.45;;;;;;;7.05;100.00;100209.38;5129348;27;20040;-81
2021/12/13 11:48:41;;;;;;;10.10;6.53;;;;;;;7.03;100.00;100211.38;5126927;27;20050;-81
2021/12/13 11:51:42;;;;;;;7.13;4.60;;;;;;;7.26;100.00;100214.72;5120763;28;20054;-81
2021/12/13 11:54:46;;;;;;;8.80;5.43;;;;;;;7.22;100.00;100217.84;5131582;28;20437;-81
2021/12/13 11:57:55;;;;;;;8.57;6.10;;;;;;;7.21;100.00;100216.13;5130348;28;20043;-81
2021/12/13 12:00:41;;;;;;;6.15;4.55;;;;;;;7.29;100.00;100201.91;5131986;28;20047;-81
2021/12/13 12:03:54;;;;;;;8.50;5.50;;;;;;;7.32;100.00;100215.19;5132328;28;20043;-81
2021/12/13 12:07:05;;;;;;;6.78;4.40;;;;;;;7.21;100.00;100211.59;5126379;27;20047;-81
2021/12/13 12:09:53;;;;;;;6.88;4.55;;;;;;;7.09;100.00;100218.94;5135620;27;20496;-81
2021/12/13 12:12:39;;;;;;;8.75;5.13;;;;;;;7.06;100.00;100196.72;5137943;27;20047;-81
2021/12/13 12:15:07;;;;;;;7.78;4.75;;;;;;;7.12;100.00;100208.84;5136232;27;20100;-81
2021/12/13 12:17:35;;;;;;;8.05;5.30;;;;;;;7.01;100.00;100205.25;5139205;27;20078;-81
2021/12/13 12:20:05;;;;;;;7.32;4.60;;;;;;;6.97;100.00;100205.66;5142348;27;20047;-81
2021/12/13 12:22:48;;;;;;;9.13;5.07;;;;;;;6.95;100.00;100205.78;5134463;27;20051;-81
2021/12/13 12:25:17;;;;;;;7.60;5.30;;;;;;;6.97;100.00;100198.41;5140098;27;20543;-81
2021/12/13 12:27:45;;;;;;;6.43;4.78;;;;;;;6.94;100.00;100195.97;5133550;27;20039;-81
2021/12/13 12:30:15;;;;;;;7.57;5.20;;;;;;;6.92;100.00;100206.06;5135898;27;20051;-81
2021/12/13 12:32:42;;;;;;;;;;;;;;;6.91;100.00;100210.63;5136196;27;20136;-81
2021/12/13 12:35:12;;;;;;;8.48;5.50;;;;;;;6.82;100.00;100200.63;5136297;27;20372;-81
2021/12/13 12:38:00;;;;;;;;;;;;;;;6.81;100.00;100209.72;5135640;27;20050;-81
2021/12/13 12:40:33;;;;;;;7.20;4.63;;;;;;;6.69;100.00;100189.19;5143737;27;20281;-81
2021/12/13 12:43:02;;;;;;;7.53;5.18;;;;;;;6.81;100.00;100193.50;5135415;27;20155;-81
2021/12/13 12:45:32;;;;;;;9.00;5.72;;;;;;;6.85;100.00;100177.84;5135626;27;20136;-81
2021/12/13 12:48:24;;;;;;;11.68;6.65;;;;;;;6.82;100.00;100183.53;5135607;27;20042;-81
2021/12/13 12:50:57;;;;;;;11.07;6.53;;;;;;;6.78;100.00;100174.84;5130905;27;20505;-81
2021/12/13 12:53:31;;;;;;;10.50;6.63;;;;;;;6.86;100.00;100166.06;5129170;27;20051;-81
2021/12/13 12:56:05;;;;;;;10.30;6.93;;;;;;;7.00;100.00;100181.03;5131215;27;20440;-81
2021/12/13 12:58:35;;;;;;;10.88;6.80;;;;;;;7.09;100.00;100180.22;5137849;27;20061;-81
2021/12/13 13:01:05;;;;;;;9.55;6.20;;;;;;;7.14;100.00;100177.97;5131261;27;20047;-81
2021/12/13 13:03:34;;;;;;;10.15;5.82;;;;;;;7.05;100.00;100173.38;5135144;27;20058;-81
2021/12/13 13:06:07;;;;;;;8.38;5.32;;;;;;;7.09;100.00;100177.50;5134217;27;21899;-81
2021/12/13 13:08:36;;;;;;;12.73;6.13;;;;;;;7.08;100.00;100176.66;5127903;27;20047;-81
2021/12/13 13:11:26;;;;;;;14.00;7.63;;;;;;;7.11;100.00;100172.84;5134737;27;20038;-81
2021/12/13 13:13:55;;;;;;;9.90;7.15;;;;;;;7.15;100.00;100178.81;5141627;27;20051;-81
2021/12/13 13:16:30;;;;;;;10.50;7.03;;;;;;;6.94;100.00;100163.53;5132631;27;20043;-81
2021/12/13 13:18:57;;;;;;;11.60;7.60;;;;;;;7.06;100.00;100173.25;5129116;27;20051;-81
2021/12/13 13:21:24;;;;;;;12.02;8.30;;;;;;;7.05;100.00;100162.56;5134657;27;20555;-81
2021/12/13 13:23:58;;;;;;;14.85;8.02;;;;;;;7.09;100.00;100170.28;5141708;27;20107;-81
2021/12/13 13:26:29;;;;;;;12.25;7.90;;;;;;;7.09;100.00;100164.88;5134612;27;20044;-81
2021/12/13 13:28:59;;;;;;;13.38;7.32;;;;;;;7.17;100.00;100168.72;5134304;27;20055;-81
2021/12/13 13:31:31;;;;;;;9.40;6.90;;;;;;;7.06;100.00;100165.16;5131277;27;20134;-81
2021/12/13 13:34:01;;;;;;;9.73;6.78;;;;;;;7.03;100.00;100151.03;5133510;27;20128;-81
2021/12/13 13:36:34;;;;;;;15.60;7.60;;;;;;;7.00;100.00;100154.88;5134632;27;20063;-81
2021/12/13 13:39:22;;;;;;;11.18;7.65;;;;;;;7.02;100.00;100166.41;5134018;27;20051;-81
2021/12/13 13:41:54;;;;;;;9.38;6.45;;;;;;;7.12;100.00;100168.28;5134199;27;20059;-81
2021/12/13 13:44:24;;;;;;;11.35;6.30;;;;;;;7.17;100.00;100164.16;5126363;27;20421;-81
2021/12/13 13:47:02;;;;;;;8.95;5.60;;;;;;;7.21;100.00;100162.91;5131234;27;20092;-81
2021/12/13 13:49:29;;;;;;;9.02;5.55;;;;;;;7.23;100.00;100165.47;5133569;27;20055;-81
2021/12/13 13:51:56;;;;;;;7.03;4.80;;;;;;;7.13;100.00;100170.00;5134012;27;20049;-81
2021/12/13 13:54:22;;;;;;;5.60;4.25;;;;;;;7.25;100.00;100152.66;5133985;27;20490;-81
2021/12/13 13:56:51;;;;;;;5.13;4.00;;;;;;;7.39;100.00;100175.72;5134165;27;20055;-81
2021/12/13 13:59:23;;;;;;;5.90;3.70;;;;;;;7.15;100.00;100149.06;5134048;27;20878;-81
2021/12/13 14:01:54;;;;;;;6.60;4.15;;;;;;;7.26;100.00;100157.06;5133640;27;20539;-81
2021/12/13 14:04:24;;;;;;;6.10;4.57;;;;;;;7.20;100.00;100160.34;5128301;27;20050;-81
2021/12/13 14:06:54;;;;;;;9.18;5.03;;;;;;;7.14;100.00;100171.72;5126257;27;20043;-81
2021/12/13 14:09:23;;;;;;;7.57;4.40;;;;;;;7.18;100.00;100159.59;5137230;27;20038;-81
2021/12/13 14:11:54;;;;;;;9.48;4.75;;;;;;;7.04;100.00;100166.25;5133819;27;20047;-81
2021/12/13 14:14:23;;;;;;;9.15;4.90;;;;;;;6.96;100.00;100155.28;5133589;27;20482;-81
2021/12/13 14:16:54;;;;;;;9.52;5.05;;;;;;;6.94;100.00;100155.44;5133403;27;20039;-81
2021/12/13 14:19:30;;;;;;;9.77;5.38;;;;;;;6.90;100.00;100156.69;5133355;27;20050;-81
2021/12/13 14:21:58;;;;;;;8.82;5.65;;;;;;;6.96;100.00;100155.28;5130466;27;20445;-81
2021/12/13 14:24:34;;;;;;;10.60;5.13;;;;;;;6.88;100.00;100147.84;5132227;27;20058;-81
2021/12/13 14:27:23;;;;;;;9.85;5.15;;;;;;;6.91;100.00;100159.25;5133395;27;20413;-81
2021/12/13 14:29:53;;;;;;;8.15;5.10;;;;;;;6.90;100.00;100167.50;5130956;27;20082;-81
2021/12/13 14:32:20;;;;;;;8.85;6.10;;;;;;;6.87;100.00;100163.22;5134814;27;20050;-81
2021/12/13 14:34:47;;;;;;;10.35;6.22;;;;;;;6.74;100.00;100157.19;5132598;27;20043;-81
2021/12/13 14:37:15;;;;;;;9.40;5.50;;;;;;;6.77;100.00;100170.44;5137183;27;20104;-81
2021/12/13 14:39:45;;;;;;;8.05;5.45;;;;;;;6.81;100.00;100182.69;5132856;27;20120;-81
2021/12/13 14:42:16;;;;;;;8.05;4.90;;;;;;;6.80;100.00;100172.84;5132841;27;20047;-81
2021/12/13 14:44:48;;;;;;;7.53;4.72;;;;;;;6.64;100.00;100156.28;5125229;27;20046;-81
2021/12/13 14:47:17;;;;;;;5.97;4.65;;;;;;;6.81;100.00;100176.44;5134910;27;20050;-81
2021/12/13 14:49:47;;;;;;;8.15;5.25;;;;;;;6.72;100.00;100167.28;5135598;27;20047;-79
2021/12/13 14:52:16;;;;;;;6.43;4.40;;;;;;;6.72;100.00;100172.69;5137334;27;20043;-79
2021/12/13 14:54:47;;;;;;;6.07;4.18;;;;;;;6.65;100.00;100166.13;5124972;27;20050;-79
2021/12/13 14:57:15;;;;;;;;;;;;;;;6.68;100.00;100182.91;5133477;27;20130;-79
2021/12/13 14:59:48;;;;;;;8.20;4.88;;;;;;;6.64;100.00;100189.59;5124257;27;19919;-79
2021/12/13 15:02:18;;;;;;;7.38;4.70;;;;;;;6.68;100.00;100191.00;5134194;27;20051;-79
2021/12/13 15:04:46;;;;;;;10.40;5.43;;;;;;;6.66;100.00;100179.50;5133018;27;20051;-79
2021/12/13 15:07:21;;;;;;;8.15;4.60;;;;;;;6.75;100.00;100198.59;5132226;27;20082;-79
2021/12/13 15:09:52;;;;;;;7.05;4.28;;;;;;;6.55;100.00;100169.63;5124335;27;20481;-79
2021/12/13 15:12:22;;;;;;;13.10;5.40;;;;;;;6.63;100.00;100189.72;5132398;27;20054;-79
2021/12/13 15:14:56;;;;;;;8.95;5.63;;;;;;;6.74;100.00;100186.91;5123722;27;20051;-79
2021/12/13 15:17:28;;;;;;;7.90;5.40;;;;;;;6.60;100.00;100176.47;5131806;27;20391;-79
2021/12/13 15:20:06;;;;;;;8.95;5.47;;;;;;;6.61;100.00;100176.34;5132967;27;20054;-79
2021/12/13 15:22:39;;;;;;;8.30;5.78;;;;;;;6.70;100.00;100185.50;5129571;27;20440;-79
2021/12/13 15:25:07;;;;;;;7.85;5.70;;;;;;;6.54;100.00;100183.28;5131662;28;20071;-79
2021/12/13 15:27:34;;;;;;;8.73;5.82;;;;;;;6.54;100.00;100192.22;5134297;27;20043;-79
2021/12/13 15:30:09;;;;;;;10.95;5.53;;;;;;;6.55;100.00;100191.25;5132174;28;20107;-79
2021/12/13 15:32:42;;;;;;;8.15;5.88;;;;;;;6.60;100.00;100190.00;5132228;28;20047;-79
2021/12/13 15:35:12;;;;;;;7.70;5.32;;;;;;;6.62;100.00;100191.53;5131440;28;20046;-79
2021/12/13 15:37:41;;;;;;;12.10;6.30;;;;;;;6.54;100.00;100196.78;5132380;28;20480;-79
2021/12/13 15:40:14;;;;;;;8.88;5.85;;;;;;;6.51;100.00;100200.59;5130865;27;20039;-79
2021/12/13 15:42:44;;;;;;;10.18;5.72;;;;;;;6.65;100.00;100193.97;5129148;28;20054;-79
2021/12/13 15:45:18;;;;;;;8.52;5.10;;;;;;;6.68;100.00;100200.97;5135545;27;20051;-79
2021/12/13 15:50:48;;;;;;;10.73;7.47;;;;;;;6.52;100.00;100180.69;5135501;27;20127;-79
2021/12/13 15:53:17;;;;;;;9.38;5.80;;;;;;;6.59;100.00;100189.13;5135015;27;20050;-79
2021/12/13 15:55:47;;;;;;;9.48;5.70;;;;;;;6.56;100.00;100178.56;5128147;27;20039;-79
2021/12/13 15:58:22;;;;;;;6.93;4.63;;;;;;;6.49;100.00;100188.22;5136306;27;20092;-79
2021/12/13 16:00:51;;;;;;;6.88;5.35;;;;;;;6.35;100.00;100179.47;5137030;27;20046;-79
2021/12/13 16:03:22;;;;;;;7.05;4.85;;;;;;;6.34;100.00;100179.63;5135952;27;20482;-79
2021/12/13 16:05:49;;;;;;;6.65;4.88;;;;;;;6.41;100.00;100185.31;5135979;27;20057;-79
2021/12/13 16:08:16;;;;;;;8.27;5.47;;;;;;;6.35;100.00;100176.78;5135530;27;20470;-79
2021/12/13 16:10:46;;;;;;;8.05;4.90;;;;;;;6.42;100.00;100189.75;5132989;27;20047;-79
2021/12/13 16:13:13;;;;;;;6.45;5.00;;;;;;;6.45;100.00;100184.06;5132422;27;20505;-79
2021/12/13 16:15:41;;;;;;;6.57;4.80;;;;;;;6.50;100.00;100181.81;5135615;27;20054;-79
2021/12/13 16:18:10;;;;;;;11.30;5.55;;;;;;;6.43;100.00;100186.91;5127591;27;20042;-79
2021/12/13 16:20:42;;;;;;;6.03;4.75;;;;;;;6.43;100.00;100200.41;5127503;27;20046;-79
2021/12/13 16:23:13;;;;;;;8.00;4.60;;;;;;;6.42;100.00;100190.59;5131716;27;20039;-79
2021/12/13 16:25:43;;;;;;;5.68;4.18;;;;;;;6.34;100.00;100180.47;5135647;27;20173;-79
2021/12/13 16:28:15;;;;;;;5.30;3.88;;;;;;;6.44;100.00;100185.91;5137001;27;20041;-79
2021/12/13 16:30:48;;;;;;;5.22;3.85;;;;;;;6.47;100.00;100214.50;5126046;27;20055;-79
2021/12/13 16:33:20;;;;;;;6.57;4.85;;;;;;;6.45;100.00;100194.88;5127609;27;20047;-79
2021/12/13 16:35:51;;;;;;;7.38;5.22;;;;;;;6.43;100.00;100199.53;5131969;27;20096;-79
2021/12/13 16:38:17;;;;;;;7.47;5.45;;;;;;;6.23;100.00;100199.41;5129308;27;20489;-79
2021/12/13 16:40:46;;;;;;;6.43;4.78;;;;;;;6.35;100.00;100208.31;5129715;27;20091;-79
2021/12/13 16:43:17;;;;;;;6.05;4.70;;;;;;;6.26;100.00;100201.84;5129379;27;20401;-79
2021/12/13 16:45:50;;;;;;;8.90;5.28;;;;;;;6.26;100.00;100214.50;5136447;27;20138;-79
2021/12/13 16:48:25;;;;;;;7.28;4.97;;;;;;;6.15;100.00;100216.28;5128757;27;20071;-79
2021/12/13 16:50:56;;;;;;;8.80;5.93;;;;;;;6.09;100.00;100215.94;5134615;27;20482;-79
2021/12/13 16:53:23;;;;;;;8.85;6.15;;;;;;;6.13;100.00;100218.25;5135811;27;20379;-79
2021/12/13 16:55:50;;;;;;;9.95;6.70;;;;;;;6.19;100.00;100223.13;5136245;27;20051;-79
2021/12/13 16:58:17;;;;;;;9.70;6.72;;;;;;;6.09;100.00;100216.81;5126361;27;20043;-79
2021/12/13 17:00:47;;;;;;;9.10;6.32;;;;;;;6.08;100.00;100212.41;5132126;27;20421;-79
2021/12/13 17:03:16;;;;;;;7.53;5.05;;;;;;;6.10;100.00;100214.97;5126166;27;20047;-78
2021/12/13 17:05:50;;;;;;;5.90;5.00;;;;;;;6.14;100.00;100224.50;5136688;27;20047;-78
2021/12/13 17:08:21;;;;;;;8.63;5.63;;;;;;;6.07;100.00;100220.59;5132763;27;20305;-83
2021/12/13 17:10:52;;;;;;;8.60;5.70;;;;;;;6.15;100.00;100218.97;5135937;27;20047;-79
2021/12/13 17:13:33;;;;;;;10.15;5.90;;;;;;;6.11;100.00;100198.66;5135920;27;20414;-82
2021/12/13 17:16:08;;;;;;;10.75;6.95;;;;;;;6.10;100.00;100206.88;5125615;27;20501;-79
2021/12/13 17:18:37;;;;;;;11.65;7.28;;;;;;;6.19;100.00;100230.38;5110293;27;20128;-78
2021/12/13 17:35:00;;;;;;;14.98;9.13;;;;;;;6.10;100.00;100213.13;5116500;27;20120;-79
2021/12/13 17:37:46;;;;;;;10.75;6.80;;;;;;;6.10;100.00;100217.69;5081498;27;20047;-79
2021/12/13 17:40:24;;;;;;;10.63;6.28;;;;;;;6.18;100.00;100215.16;5134170;27;20082;-79
2021/12/13 17:42:56;;;;;;;10.68;6.65;;;;;;;6.10;100.00;100209.56;5132062;27;20050;-79
2021/12/13 17:45:28;;;;;;;9.85;6.28;;;;;;;6.22;100.00;100207.66;5125956;27;20524;-79
2021/12/13 17:48:12;;;;;;;13.98;7.60;;;;;;;6.22;100.00;100213.94;5138566;27;20115;-78
2021/12/13 17:50:43;;;;;;;11.80;7.22;;;;;;;6.31;100.00;100212.28;5126424;27;20054;-79
2021/12/13 17:53:18;;;;;;;14.95;8.73;;;;;;;6.24;100.00;100208.41;5133723;27;20053;-79
2021/12/13 17:55:47;;;;;;;11.80;7.43;;;;;;;6.26;100.00;100222.59;5133432;27;20063;-79
2021/12/13 17:58:19;;;;;;;12.40;7.83;;;;;;;6.22;100.00;100216.63;5133179;27;20043;-79
2021/12/13 18:00:49;;;;;;;13.23;8.88;;;;;;;6.23;100.00;100229.13;5133520;27;20104;-79
2021/12/13 18:03:33;;;;;;;12.85;7.40;;;;;;;6.19;100.00;100201.53;5133467;27;20070;-79
2021/12/13 18:06:25;;;;;;;12.95;8.45;;;;;;;6.10;100.00;100209.56;5137278;27;20545;-78
2021/12/13 18:09:15;;;;;;;15.07;9.35;;;;;;;6.14;100.00;100221.81;5131025;27;20047;-79
2021/12/13 18:11:47;;;;;;;10.63;7.15;;;;;;;5.94;100.00;100212.69;5112737;27;20051;-79
2021/12/13 18:14:22;;;;;;;11.80;6.85;;;;;;;5.91;100.00;100205.69;5132683;27;20095;-79
2021/12/13 18:16:48;;;;;;;11.48;7.75;;;;;;;5.91;100.00;100211.06;5124813;27;20081;-79
2021/12/13 18:19:16;;;;;;;13.45;8.73;;;;;;;5.97;100.00;100229.50;5127669;27;20043;-79
2021/12/13 18:21:44;;;;;;;14.77;7.97;;;;;;;5.91;100.00;100223.72;5126805;27;20539;-79
2021/12/13 18:24:15;;;;;;;11.95;7.15;;;;;;;5.92;100.00;100220.06;5128350;27;20098;-79
2021/12/13 18:26:53;;;;;;;12.48;8.13;;;;;;;5.90;100.00;100220.19;5126251;27;20038;-79
2021/12/13 18:29:27;;;;;;;11.07;7.15;;;;;;;5.86;100.00;100210.63;5122604;27;20046;-79
2021/12/13 18:31:56;;;;;;;15.00;8.43;;;;;;;5.87;100.00;100220.41;5122734;27;20055;-78
2021/12/13 18:34:35;;;;;;;14.85;8.32;;;;;;;5.84;100.00;100221.56;5125431;27;20080;-79
2021/12/13 18:37:09;;;;;;;11.73;7.43;;;;;;;5.91;100.00;100221.88;5127698;27;20051;-80
2021/12/13 18:39:56;;;;;;;11.10;8.27;;;;;;;6.01;100.00;100239.06;5123941;27;20057;-79
2021/12/13 18:42:55;;;;;;;14.27;8.95;;;;;;;5.88;100.00;100222.13;5130800;27;20067;-79
2021/12/13 18:45:36;;;;;;;15.52;9.68;;;;;;;5.87;100.00;100215.00;5130369;27;20046;-79
2021/12/13 18:48:27;;;;;;;11.95;6.25;;;;;;;5.96;100.00;100233.16;5130160;27;20133;-79
2021/12/13 18:50:58;;;;;;;9.35;6.63;;;;;;;5.87;100.00;100228.50;5120863;27;20053;-78
2021/12/13 18:53:31;;;;;;;12.18;8.57;;;;;;;5.96;100.00;100238.56;5123251;27;20058;-79
2021/12/13 18:56:06;;;;;;;11.98;8.35;;;;;;;6.03;100.00;100234.38;5133142;27;20047;-78
2021/12/13 18:58:36;;;;;;;9.52;6.32;;;;;;;5.91;100.00;100232.66;5132508;27;20123;-79
2021/12/13 19:01:11;;;;;;;8.75;5.90;;;;;;;5.84;100.00;100213.44;5123009;27;20047;-80
2021/12/13 19:03:51;;;;;;;9.10;6.40;;;;;;;6.09;100.00;100227.59;5104905;27;20047;-80
2021/12/13 19:06:28;;;;;;;8.00;6.10;;;;;;;6.14;100.00;100228.09;5129050;27;20047;-80
2021/12/13 19:09:09;;;;;;;9.60;5.70;;;;;;;6.07;100.00;100228.72;5129676;27;20122;-80
2021/12/13 19:11:41;;;;;;;8.93;5.80;;;;;;;6.09;100.00;100235.69;5137631;22;20128;-79
2021/12/13 19:14:11;;;;;;;8.02;5.20;;;;;;;6.20;100.00;100229.38;5062869;28;20076;-79
2021/12/13 19:16:42;;;;;;;9.20;5.25;;;;;;;6.11;100.00;100219.38;5052562;28;20041;-79
2021/12/13 19:19:14;;;;;;;7.47;5.28;;;;;;;6.13;100.00;100223.66;5051871;28;20045;-79
2021/12/13 19:21:46;;;;;;;7.63;5.22;;;;;;;6.07;100.00;100226.88;5050581;28;20055;-79
2021/12/13 19:24:19;;;;;;;7.95;5.35;;;;;;;6.07;100.00;100240.38;5047735;28;20044;-79
2021/12/13 19:26:52;;;;;;;7.25;4.82;;;;;;;6.07;100.00;100234.97;5047670;28;20057;-79
2021/12/13 19:29:35;;;;;;;13.27;9.13;;;;;;;5.98;100.00;100227.66;5048333;28;20063;-79
2021/12/13 19:32:12;;;;;;;11.15;6.95;;;;;;;5.87;100.00;100228.50;5051886;28;20049;-79